Terminal Aerodrome Forecast
Issued by NWS Green Bay, WI

Home | Current Version | Previous Version | Graphics & Text | Print | Product List | Glossary On
Versions: 1 2 3 4 5 6 7 8 9 10 11 12 13 14 15 16 17 18 19 20 21 22
000
FTUS43 KGRB 210934 AAC
TAFGRB
TAF AMD
KGRB 210934Z 2110/2206 00000KT 3SM BR SCT009 OVC110
      TEMPO 2112/2115 2SM BR
     FM211600 VRB03KT 5SM BR OVC060
     FM212300 05006KT P6SM OVC015
     FM220300 04007KT 6SM -SN BR OVC012=

USA.gov is the U.S. government's official web portal to all federal, state and local government web resources and services.